Weather reports worldwide

Advertisment
Großer Arber, Germany (10791): temperature & dewpoint: 18.06.2018 11:00:00 - 24.06.2018 11:00:00 (CEST)Großer Arber, Germany (10791): wind speed & gusts: 18.06.2018 11:00:00 - 24.06.2018 11:00:00 (CEST)Großer Arber, Germany (10791): wind direction: 18.06.2018 11:00:00 - 24.06.2018 11:00:00 (CEST)Großer Arber, Germany (10791): visibility: 18.06.2018 11:00:00 - 24.06.2018 11:00:00 (CEST)Großer Arber, Germany (10791): sunshine duration: 18.06.2018 11:00:00 - 24.06.2018 11:00:00 (CEST)Großer Arber, Germany (10791): precipitation: 18.06.2018 11:00:00 - 24.06.2018 11:00:00 (CEST)
Date & Time tt [°C] td [°C] ff [km/h] ff [kn] fx [km/h] fx [kn] dd vv [km] sd [min] rr [mm]
24.06.2018 11:00:00 4,9 4,6 18 10 36 19 WNW 0,2 0 0,0
24.06.2018 10:00:00 4,5 4,3 23 12 40 22 W 0,1 0 0,0
24.06.2018 09:00:00 4,0 3,8 18 10 30 16 W 0,1 0 0,0
24.06.2018 08:00:00 3,8 3,7 19 11 35 19 WNW 0,1 0 0,0
24.06.2018 07:00:00 3,7 3,5 22 12 38 21 WNW 0,1 0 0,0
24.06.2018 06:00:00 3,7 3,6 24 13 39 21 WNW 0,1 0 0,0
24.06.2018 05:00:00 3,7 3,5 23 12 34 19 WNW 0,1 0 0,0
24.06.2018 04:00:00 3,6 3,5 24 13 35 19 NW 0,1 0 0,0
24.06.2018 03:00:00 3,4 3,2 25 13 31 17 NW 0,1 0 0,0
24.06.2018 02:00:00 3,4 3,3 24 13 39 21 NNW 0,1 0 0,0
24.06.2018 01:00:00 3,4 3,2 31 17 40 22 NNW 0,1 0 0,0
24.06.2018 00:00:00 3,4 3,3 28 15 38 21 NNW 0,1 0 0,0
23.06.2018 23:00:00 3,4 3,3 28 15 42 23 NNW 0,1 0 0,0
23.06.2018 22:00:00 3,7 3,7 29 15 51 28 WNW 0,1 0 0,0
23.06.2018 21:00:00 3,9 3,7 31 17 51 27 WNW 0,2 0 0,1
23.06.2018 20:00:00 4,2 3,9 28 15 45 25 WNW 0,2 0 0,0
23.06.2018 19:00:00 4,2 3,5 27 15 40 22 NW 10 0 0,2
23.06.2018 18:00:00 4,3 3,6 24 13 35 19 WNW 10 0 0,2
23.06.2018 17:00:00 4,7 2,7 22 12 37 20 WNW 11 0 0,0
23.06.2018 16:00:00 5,6 1,9 28 15 42 23 W 11 0 0,0
23.06.2018 15:00:00 5,7 2,2 27 15 44 24 W 11 21 0,0
23.06.2018 14:00:00 5,4 3,5 29 15 50 27 W 10 15 0,0
23.06.2018 13:00:00 3,7 3,2 32 18 57 31 W 0,6 1 0,0
23.06.2018 12:00:00 3,3 2,8 36 19 53 29 W 0,6 1 0,0
23.06.2018 11:00:00 2,9 2,7 36 19 58 31 W 0,2 2 0,0
23.06.2018 10:00:00 2,5 2,3 33 18 56 31 W 0,1 2 0,0
23.06.2018 09:00:00 2,7 2,5 27 15 45 24 W 0,1 3 0,0
23.06.2018 08:00:00 2,5 2,3 23 13 39 21 WNW 0,1 10 0,0
23.06.2018 07:00:00 2,3 2,1 26 14 40 22 NW 0,1 1 0,0
23.06.2018 06:00:00 2,4 2,3 32 17 42 23 NW 0,1 0 0,0
23.06.2018 05:00:00 2,7 2,7 30 16 51 27 NW 0,1 0 0,0
23.06.2018 04:00:00 2,9 2,8 32 17 50 27 NW 0,1 0 0,0
23.06.2018 03:00:00 2,9 2,8 29 16 47 26 NW 0,1 0 0,0
23.06.2018 02:00:00 2,9 2,8 30 16 54 29 NW 0,1 0 0,0
23.06.2018 01:00:00 2,9 2,7 40 22 58 31 WNW 0,1 0 0,0
23.06.2018 00:00:00 3,1 3,0 39 21 59 32 WNW 0,1 0 0,0
22.06.2018 23:00:00 3,0 2,9 34 19 50 27 NW 0,1 0 0,1
22.06.2018 22:00:00 2,7 2,7 40 22 68 37 NW 0,1 0 0,8
22.06.2018 21:00:00 2,5 2,4 39 21 57 31 WNW 0,3 0 0,1
22.06.2018 20:00:00 3,2 3,1 34 18 61 33 NW 0,1 0 0,0
22.06.2018 19:00:00 2,9 2,9 42 23 71 38 WNW 0,1 0 1,3
22.06.2018 18:00:00 2,7 2,7 35 19 78 42 WNW 0,1 1 0,3
22.06.2018 17:00:00 0,9 0,8 44 24 72 39 W 0,1 0 2,1
22.06.2018 16:00:00 2,2 1,9 37 20 60 32 W 0,4 3 0,5
22.06.2018 15:00:00 1,8 1,7 38 21 61 33 WNW 0,1 0 1,0
22.06.2018 14:00:00 1,8 1,2 36 19 54 29 W 4,1 0 0,4
22.06.2018 13:00:00 4,1 0,2 32 18 45 24 W 11 3 0,0
22.06.2018 12:00:00 3,4 -0,4 32 18 51 28 W 11 15 0,0
22.06.2018 11:00:00 5,0 0,5 32 17 55 30 W 11 27 0,0
22.06.2018 10:00:00 3,9 -0,1 32 17 49 26 W 11 47 0,0
22.06.2018 09:00:00 3,4 0,7 22 12 42 23 W 11 41 0,0
22.06.2018 08:00:00 2,2 -0,1 28 15 40 22 W 11 51 0,0
22.06.2018 07:00:00 2,1 0,0 18 10 32 17 W 11 21 0,0
22.06.2018 06:00:00 1,7 -0,2 23 12 32 18 NW 11 28 0,0
22.06.2018 05:00:00 1,7 -0,4 26 14 39 21 NNW 11 0 0,0
22.06.2018 04:00:00 2,4 -0,9 27 15 38 21 NNW 10 0 0,0
22.06.2018 03:00:00 3,1 -0,9 29 15 40 22 N 11 0 0,0
22.06.2018 02:00:00 4,5 -0,2 28 15 42 23 N 11 0 0,0
22.06.2018 01:00:00 5,9 0,7 32 17 44 24 N 11 0 0,0
22.06.2018 00:00:00 7,1 3,6 24 13 37 20 N 11 0 0,0
21.06.2018 23:00:00 8,8 7,7 22 12 41 22 NNW 11 0 0,0
21.06.2018 22:00:00 10,1 6,6 26 14 46 25 NW 10 0 0,0
21.06.2018 21:00:00 11,4 8,6 31 17 53 29 NW 11 3 0,0
21.06.2018 20:00:00 13,8 9,7 37 20 54 29 NW 11 23 0,0
21.06.2018 19:00:00 14,7 7,5 33 18 54 29 WNW 11 46 0,0
21.06.2018 18:00:00 16,5 6,0 39 21 64 35 WNW 10 53 0,0
21.06.2018 17:00:00 17,7 6,6 42 23 65 35 W 11 46 0,0
21.06.2018 16:00:00 17,8 10,5 43 23 69 37 W 11 23 0,0
21.06.2018 15:00:00 18,5 11,4 36 20 59 32 WSW 10 28 0,0
21.06.2018 14:00:00 18,7 12,3 32 18 57 31 SSW 11 40 0,0
21.06.2018 13:00:00 17,3 11,9 32 18 48 26 SW 11 35 0,0
21.06.2018 12:00:00 17,7 12,1 22 12 46 25 SSW 11 43 0,0
21.06.2018 11:00:00 17,7 12,5 14 8 28 15 S 11 59 0,0
21.06.2018 10:00:00 16,9 11,4 21 12 28 15 SW 11 60 0,0
21.06.2018 09:00:00 16,1 10,7 18 10 23 13 SW 11 60 0,0
21.06.2018 08:00:00 15,8 10,7 14 8 19 11 SW 11 60 0,0
21.06.2018 07:00:00 14,9 9,7 13 7 18 10 WSW 11 21 0,0
21.06.2018 06:00:00 13,9 9,2 12 6 14 7 WSW 11 11 0,0
21.06.2018 05:00:00 14,0 9,1 10 5 11 6 WSW 11 0 0,0
21.06.2018 04:00:00 14,4 9,1 10 5 11 6 SW 10 0 0,0
21.06.2018 03:00:00 14,8 9,0 7 4 9 5 SSW 11 0 0,0
21.06.2018 02:00:00 14,6 9,5 9 5 10 6 SW 11 0 0,0
21.06.2018 01:00:00 14,4 10,0 10 5 13 7 SSW 11 0 0,0
21.06.2018 00:00:00 14,9 9,9 10 5 13 7 SSW 10 0 0,0
20.06.2018 23:00:00 14,8 10,7 4 2 4 2 SSW 11 0 0,0
20.06.2018 22:00:00 15,2 10,3 0 0 6 3 N 11 12 0,0
20.06.2018 21:00:00 16,1 10,4 4 2 8 4 SW 11 56 0,0
20.06.2018 20:00:00 17,3 9,9 4 2 9 5 N 11 60 0,0
20.06.2018 19:00:00 17,3 10,4 6 3 13 7 E 11 42 0,0
20.06.2018 18:00:00 17,7 10,2 8 4 15 8 S 11 47 0,0
20.06.2018 17:00:00 17,0 11,6 10 6 27 15 SSE 11 17 0,0
20.06.2018 16:00:00 17,0 11,8 9 5 16 9 S 11 8 0,0
20.06.2018 15:00:00 16,9 10,8 6 4 18 10 SSW 11 20 0,0
20.06.2018 14:00:00 16,3 10,6 13 7 21 12 S 10 9 0,0
20.06.2018 13:00:00 14,8 10,3 9 5 19 10 S 11 11 0,0
20.06.2018 12:00:00 14,9 9,7 9 5 23 12 SSE 11 27 0,0
20.06.2018 11:00:00 15,1 9,4 10 5 21 12 SE 11 12 0,0
20.06.2018 10:00:00 14,3 9,9 15 8 27 15 SE 11 47 0,0
20.06.2018 09:00:00 15,1 10,1 13 7 21 11 SE 11 54 0,0
20.06.2018 08:00:00 13,2 9,4 9 5 11 6 SE 11 7 0,0
20.06.2018 07:00:00 13,0 7,1 6 3 7 4 ESE 11 0 0,0
20.06.2018 06:00:00 12,6 6,9 5 3 8 4 E 11 0 0,0
20.06.2018 05:00:00 12,4 8,0 6 3 8 4 E 10 0 0,0
20.06.2018 04:00:00 12,0 9,5 7 4 11 6 ENE 11 0 0,0
20.06.2018 03:00:00 12,1 9,9 7 4 10 6 ENE 11 0 0,0
20.06.2018 02:00:00 11,9 9,4 7 4 11 6 NNE 11 0 0,0
20.06.2018 01:00:00 12,0 10,2 9 5 12 7 NE 11 0 0,0
20.06.2018 00:00:00 12,0 9,8 9 5 14 8 N 11 0 0,0
19.06.2018 23:00:00 12,2 10,6 11 6 16 8 NNW 11 0 0,0
19.06.2018 22:00:00 12,1 10,7 12 7 20 11 NW 10 0 0,0
19.06.2018 21:00:00 12,4 10,7 15 8 21 12 NW 10 0 0,0
19.06.2018 20:00:00 12,8 10,6 13 7 19 10 WNW 11 0 0,0
19.06.2018 19:00:00 13,0 10,5 13 7 22 12 W 10 0 0,0
19.06.2018 18:00:00 13,2 10,8 11 6 23 12 W 11 0 0,0
19.06.2018 17:00:00 13,3 10,7 14 8 27 14 W 10 1 0,0
19.06.2018 16:00:00 11,8 10,1 14 8 24 13 WSW 11 3 0,0
19.06.2018 15:00:00 11,5 9,9 11 6 22 12 WSW 10 0 0,0
19.06.2018 14:00:00 12,0 9,7 16 9 30 16 W 10 0 0,0
19.06.2018 13:00:00 11,7 8,2 16 9 30 16 W 11 1 0,0
19.06.2018 12:00:00 11,2 8,8 20 11 32 18 W 11 0 0,0
19.06.2018 11:00:00 11,5 9,1 21 11 38 21 W 10 1 0,0
19.06.2018 10:00:00 11,5 8,6 20 11 30 16 W 11 5 0,0
19.06.2018 09:00:00 11,7 8,6 16 9 32 17 NW 11 56 0,0
19.06.2018 08:00:00 10,4 7,9 15 8 32 17 NW 11 53 0,0
19.06.2018 07:00:00 9,4 7,6 21 11 29 16 WNW 10 21 0,0
19.06.2018 06:00:00 9,0 7,6 20 11 36 19 WNW 11 0 0,0
19.06.2018 05:00:00 10,0 7,2 30 16 41 22 W 11 0 0,0
19.06.2018 04:00:00 9,5 7,3 17 9 25 13 WNW 11 0 0,0
19.06.2018 03:00:00 9,4 7,0 16 9 19 10 WNW 11 0 0,0
19.06.2018 02:00:00 9,6 7,2 15 8 25 14 WNW 11 0 0,0
19.06.2018 01:00:00 10,1 7,0 16 9 24 13 WNW 11 0 0,0
19.06.2018 00:00:00 10,3 6,9 14 8 21 12 WNW 11 0 0,0
18.06.2018 23:00:00 11,0 7,0 16 9 26 14 WNW 11 0 0,0
18.06.2018 22:00:00 11,2 7,7 17 9 26 14 WNW 11 0 0,0
18.06.2018 21:00:00 11,2 7,5 20 11 27 15 W 10 7 0,0
18.06.2018 20:00:00 12,0 7,9 14 8 22 12 W 10 0 0,0
18.06.2018 19:00:00 12,2 7,9 16 8 24 13 W 11 0 0,0
18.06.2018 18:00:00 12,2 8,0 12 7 27 15 W 10 0 0,0
18.06.2018 17:00:00 12,7 7,6 12 7 30 16 WNW 11 2 0,0
18.06.2018 16:00:00 13,9 7,6 19 11 34 18 WNW 11 24 0,0
18.06.2018 15:00:00 13,1 7,5 16 8 34 18 W 11 38 0,0
18.06.2018 14:00:00 14,0 6,1 18 10 34 18 W 10 57 0,0
18.06.2018 13:00:00 13,8 7,4 18 10 35 19 W 11 50 0,0
18.06.2018 12:00:00 12,5 7,5 16 8 28 15 W 11 38 0,0
18.06.2018 11:00:00 10,6 6,6 20 11 36 19 W 11 44 0,0

tt = temperature
td = dewpoint
ff = wind speed
fx = gusts
dd = wind direction
vv = visibility
sd = sunshine duration
rr = precipitation

Next stations